Time;durP1;ratioP1;P1;durP2;ratioP2;P2;SDS_P1;SDS_P2;PMS_P1;PMS_P2;Temp;Humidity;BMP_temperature;BMP_pressure;BME280_temperature;BME280_humidity;BME280_pressure;Samples;Min_cycle;Max_cycle;Signal;HPM_P1;HPM_P2
2022/12/10 00:02:07;;;;;;;;;;;;;;;3.05;59.82;100801.72;5029917;27;110085;-68
2022/12/10 00:04:34;;;;;;;;;;;;;;;3.03;59.65;100803.50;5032170;28;109706;-68
2022/12/10 00:07:01;;;;;;;;;;;;;;;3.00;59.63;100799.19;5029847;28;123518;-68
2022/12/10 00:09:28;;;;;;;;;;;;;;;2.99;59.66;100796.59;5031111;28;124274;-67
2022/12/10 00:11:55;;;;;;;;;;;;;;;2.98;59.65;100805.34;5030620;28;109703;-67
2022/12/10 00:14:21;;;;;;;;;;;;;;;2.97;59.81;100803.59;5030765;27;108608;-68
2022/12/10 00:16:48;;;;;;;;;;;;;;;2.95;59.88;100800.13;5026461;28;123762;-67
2022/12/10 00:19:15;;;;;;;;;;;;;;;2.93;59.57;100797.53;5028820;28;124190;-68
2022/12/10 00:21:42;;;;;;;;;;;;;;;2.92;59.58;100796.69;5028521;27;110463;-68
2022/12/10 00:24:09;;;;;;;;;;;;;;;2.90;59.65;100803.69;5027955;28;109066;-67
2022/12/10 00:26:37;;;;;;;;;;;;;;;2.87;59.78;100801.09;5030182;28;125081;-67
2022/12/10 00:29:06;;;;;;;;;;;;;;;2.86;59.80;100802.00;5030549;28;124693;-67
2022/12/10 00:31:34;;;;;;;;;;;;;;;2.84;59.62;100803.75;5029881;27;108873;-68
2022/12/10 00:34:03;;;;;;;;;;;;;;;2.82;59.75;100805.53;5037631;27;108190;-67
2022/12/10 00:36:32;;;;;;;;;;;;;;;2.81;59.65;100814.28;5024713;27;124108;-68
2022/12/10 00:38:59;;;;;;;;;;;;;;;2.79;59.86;100810.81;5027665;28;122826;-67
2022/12/10 00:41:27;;;;;;;;;;;;;;;2.78;59.75;100803.84;5028896;28;109741;-68
2022/12/10 00:43:54;;;;;;;;;;;;;;;2.77;59.76;100809.97;5031653;28;108661;-67
2022/12/10 00:46:21;;;;;;;;;;;;;;;2.76;59.75;100816.06;5027129;28;124161;-67
2022/12/10 00:48:48;;;;;;;;;;;;;;;2.76;59.89;100808.22;5037770;27;123214;-68
2022/12/10 00:51:17;;;;;;;;;;;;;;;2.75;59.98;100803.91;5031681;28;110671;-69
2022/12/10 00:53:44;;;;;;;;;;;;;;;2.75;59.86;100796.06;5028452;28;109788;-68
2022/12/10 00:56:13;;;;;;;;;;;;;;;2.76;59.77;100799.53;5029529;28;125663;-68
2022/12/10 00:58:40;;;;;;;;;;;;;;;2.74;59.79;100802.16;5013151;27;123215;-67
2022/12/10 01:01:15;;;;;;;;;;;;;;;2.76;59.96;100800.38;5022957;27;108623;-68
2022/12/10 01:03:44;;;;;;;;;;;;;;;2.74;59.93;100802.16;5029106;28;107702;-68
2022/12/10 01:06:16;;;;;;;;;;;;;;;2.74;59.96;100796.94;5029140;27;123708;-68
2022/12/10 01:08:43;;;;;;;;;;;;;;;2.75;59.83;100803.91;5029432;27;124534;-68
2022/12/10 01:11:11;;;;;;;;;;;;;;;2.73;59.94;100801.31;5031305;28;109901;-67
2022/12/10 01:13:39;;;;;;;;;;;;;;;2.75;59.89;100809.13;5029711;27;107805;-67
2022/12/10 01:16:07;;;;;;;;;;;;;;;2.75;59.67;100808.25;5028144;28;123575;-67
2022/12/10 01:18:34;;;;;;;;;;;;;;;2.73;59.87;100800.41;5027958;27;122830;-68
2022/12/10 01:21:06;;;;;;;;;;;;;;;2.72;59.66;100812.63;5029355;28;109084;-67
2022/12/10 01:23:35;;;;;;;;;;;;;;;2.72;59.89;100814.38;5025351;27;109518;-68
2022/12/10 01:26:02;;;;;;;;;;;;;;;2.71;59.90;100812.66;5030219;28;124062;-68
2022/12/10 01:28:34;;;;;;;;;;;;;;;2.70;59.76;100819.63;5032995;28;124799;-68
2022/12/10 01:31:02;;;;;;;;;;;;;;;2.70;59.97;100821.41;5035138;27;108671;-68
2022/12/10 01:33:31;;;;;;;;;;;;;;;2.69;59.71;100819.66;5034376;27;109154;-68
2022/12/10 01:36:06;;;;;;;;;;;;;;;2.68;59.99;100815.31;5033440;27;124499;-68
2022/12/10 01:38:35;;;;;;;;;;;;;;;2.66;59.64;100814.47;5033210;27;124018;-68
2022/12/10 01:41:04;;;;;;;;;;;;;;;2.65;59.86;100817.97;5034232;27;109359;-68
2022/12/10 01:43:50;;;;;;;;;;;;;;;2.64;59.62;100813.63;5031313;28;110118;-68
2022/12/10 01:46:17;;;;;;;;;;;;;;;2.62;59.91;100825.84;5023047;28;124476;-67
2022/12/10 01:48:44;;;;;;;;;;;;;;;2.61;59.76;100826.75;5031651;28;124600;-67
2022/12/10 01:51:12;;;;;;;;;;;;;;;2.59;59.90;100825.91;5030959;28;109819;-68
2022/12/10 01:53:39;;;;;;;;;;;;;;;2.58;59.65;100826.75;5033832;28;108819;-67
2022/12/10 01:56:09;;;;;;;;;;;;;;;2.57;59.78;100830.28;5032457;27;123826;-68
2022/12/10 01:58:36;;;;;;;;;;;;;;;2.56;59.85;100833.75;5031156;27;123223;-67
2022/12/10 02:01:09;;;;;;;;;;;;;;;2.56;59.80;100829.38;5033750;28;110076;-68
2022/12/10 02:03:52;;;;;;;;;;;;;;;2.55;59.62;100832.06;5030065;27;109334;-68
2022/12/10 02:06:30;;;;;;;;;;;;;;;2.50;59.65;100832.94;5047383;27;123517;-67
2022/12/10 02:08:57;;;;;;;;;;;;;;;2.46;59.69;100828.63;5029375;27;123159;-68
2022/12/10 02:11:29;;;;;;;;;;;;;;;2.43;59.66;100833.94;5033043;28;108744;-68
2022/12/10 02:14:25;;;;;;;;;;;;;;;2.39;59.75;100837.44;5030551;28;108627;-67
2022/12/10 02:16:58;;;;;;;;;;;;;;;2.36;59.73;100834.88;5006170;28;125455;-68
2022/12/10 02:19:54;;;;;;;;;;;;;;;2.31;59.81;100823.59;5032069;27;124082;-68
2022/12/10 02:22:22;;;;;;;;;;;;;;;2.31;59.80;100826.22;5019206;28;109153;-68
2022/12/10 02:24:51;;;;;;;;;;;;;;;2.29;59.71;100825.38;5034151;28;109341;-67
2022/12/10 02:27:36;;;;;;;;;;;;;;;2.29;59.85;100825.38;5032248;27;123830;-68
2022/12/10 02:30:04;;;;;;;;;;;;;;;2.29;59.83;100814.91;5044032;27;125322;-68
2022/12/10 02:32:34;;;;;;;;;;;;;;;2.28;60.04;100823.63;5032983;27;110864;-67
2022/12/10 02:35:05;;;;;;;;;;;;;;;2.28;59.85;100823.63;5032360;27;109898;-68
2022/12/10 02:37:38;;;;;;;;;;;;;;;2.28;59.82;100823.63;5022527;28;123644;-67
2022/12/10 02:40:08;;;;;;;;;;;;;;;2.26;59.64;100825.38;5028983;27;125426;-68
2022/12/10 02:42:41;;;;;;;;;;;;;;;2.24;59.72;100816.72;5031989;27;108579;-68
2022/12/10 02:45:09;;;;;;;;;;;;;;;2.23;59.85;100835.91;5031786;28;109355;-68
2022/12/10 02:47:38;;;;;;;;;;;;;;;2.23;59.94;100830.66;5031210;28;125219;-68
2022/12/10 02:50:07;;;;;;;;;;;;;;;2.24;59.88;100827.16;5029758;27;123204;-67
2022/12/10 02:52:34;;;;;;;;;;;;;;;2.25;60.00;100834.13;5030937;28;109447;-68
2022/12/10 02:55:01;;;;;;;;;;;;;;;2.26;59.79;100833.22;5031453;28;108109;-68
2022/12/10 02:57:45;;;;;;;;;;;;;;;2.26;59.79;100830.63;5030717;28;125478;-67
2022/12/10 03:00:18;;;;;;;;;;;;;;;2.26;59.78;100835.84;5034455;27;124399;-68
2022/12/10 03:03:09;;;;;;;;;;;;;;;2.25;59.92;100834.13;5049574;27;109669;-67
2022/12/10 03:05:56;;;;;;;;;;;;;;;2.24;59.76;100837.59;5035577;28;108721;-68
2022/12/10 03:08:43;;;;;;;;;;;;;;;2.22;59.85;100834.16;5030711;28;124596;-67
2022/12/10 03:11:12;;;;;;;;;;;;;;;2.18;59.77;100833.31;5029893;27;124103;-68
2022/12/10 03:13:44;;;;;;;;;;;;;;;2.17;59.77;100835.94;5029359;28;109953;-67
2022/12/10 03:16:12;;;;;;;;;;;;;;;2.13;59.71;100829.91;5030283;28;108455;-68
2022/12/10 03:18:39;;;;;;;;;;;;;;;2.13;59.76;100836.00;5032259;28;124742;-68
2022/12/10 03:21:07;;;;;;;;;;;;;;;2.13;60.09;100830.75;5026824;28;124516;-68
2022/12/10 03:23:36;;;;;;;;;;;;;;;2.14;59.98;100822.03;5030616;28;110249;-67
2022/12/10 03:26:03;;;;;;;;;;;;;;;2.16;59.94;100818.56;5025953;27;108404;-67
2022/12/10 03:28:32;;;;;;;;;;;;;;;2.18;60.04;100812.41;5031456;27;124322;-68
2022/12/10 03:30:58;;;;;;;;;;;;;;;2.21;59.91;100816.75;5031434;28;123941;-68
2022/12/10 03:33:25;;;;;;;;;;;;;;;2.23;59.97;100821.06;5032735;28;109314;-67
2022/12/10 03:35:52;;;;;;;;;;;;;;;2.26;60.10;100830.63;5031037;28;109154;-68
2022/12/10 03:38:19;;;;;;;;;;;;;;;2.27;60.10;100816.69;5027109;28;123981;-67
2022/12/10 03:40:46;;;;;;;;;;;;;;;2.29;59.88;100826.22;5032816;28;124395;-68
2022/12/10 03:43:13;;;;;;;;;;;;;;;2.33;59.91;100821.84;5031153;28;109349;-67
2022/12/10 03:45:41;;;;;;;;;;;;;;;2.33;59.97;100827.06;5032759;28;109499;-68
2022/12/10 03:48:08;;;;;;;;;;;;;;;2.35;59.98;100827.91;5028314;27;124333;-67
2022/12/10 03:50:34;;;;;;;;;;;;;;;2.36;59.95;100829.66;5032178;28;123648;-68
2022/12/10 03:53:01;;;;;;;;;;;;;;;2.37;60.00;100833.13;5032879;28;109486;-68
2022/12/10 03:55:28;;;;;;;;;;;;;;;2.38;59.98;100830.50;5029669;28;109198;-68
2022/12/10 03:57:55;;;;;;;;;;;;;;;2.39;60.07;100837.44;5030829;28;124223;-68
2022/12/10 04:00:22;;;;;;;;;;;;;;;2.40;59.80;100839.19;5031283;28;123020;-67
2022/12/10 04:02:49;;;;;;;;;;;;;;;2.41;59.86;100838.31;5029741;28;109747;-68
2022/12/10 04:05:16;;;;;;;;;;;;;;;2.41;59.85;100840.94;5029383;28;108548;-67
2022/12/10 04:07:43;;;;;;;;;;;;;;;2.41;59.97;100843.53;5027110;28;124554;-67
2022/12/10 04:10:10;;;;;;;;;;;;;;;2.41;59.95;100851.38;5028176;27;122804;-68
2022/12/10 04:12:37;;;;;;;;;;;;;;;2.41;59.91;100850.50;5032331;28;110276;-68
2022/12/10 04:17:50;;;;;;;;;;;;;;;2.41;59.73;100856.59;5031027;28;124154;-67
2022/12/10 04:28:33;;;;;;;;;;;;;;;2.36;59.78;100847.94;5025401;28;124628;-68
2022/12/10 04:31:00;;;;;;;;;;;;;;;2.37;60.06;100844.44;5030068;28;124149;-68
2022/12/10 04:33:27;;;;;;;;;;;;;;;2.38;60.02;100840.94;5030030;28;109391;-67
2022/12/10 04:35:53;;;;;;;;;;;;;;;2.38;59.97;100851.41;5028007;28;106972;-68
2022/12/10 04:38:20;;;;;;;;;;;;;;;2.37;59.91;100860.13;5028540;28;124196;-68
2022/12/10 04:40:47;;;;;;;;;;;;;;;2.35;59.92;100851.44;5030857;28;124771;-68
2022/12/10 04:43:14;;;;;;;;;;;;;;;2.36;60.07;100854.94;5032013;28;110901;-68
2022/12/10 04:45:41;;;;;;;;;;;;;;;2.33;59.84;100853.19;5026036;28;108546;-67
2022/12/10 04:48:08;;;;;;;;;;;;;;;2.34;60.04;100849.72;5026870;28;124355;-68
2022/12/10 04:50:34;;;;;;;;;;;;;;;2.35;59.98;100856.66;5030030;27;123829;-68
2022/12/10 04:53:01;;;;;;;;;;;;;;;2.38;60.13;100861.00;5030075;28;109455;-68
2022/12/10 04:55:28;;;;;;;;;;;;;;;2.42;60.21;100853.09;5031224;28;109345;-67
2022/12/10 04:57:55;;;;;;;;;;;;;;;2.44;60.02;100860.91;5029275;28;123277;-67
2022/12/10 05:00:22;;;;;;;;;;;;;;;2.45;59.97;100853.06;5033335;27;124431;-68
2022/12/10 05:02:49;;;;;;;;;;;;;;;2.45;59.95;100858.28;5032283;28;110199;-68
2022/12/10 05:05:16;;;;;;;;;;;;;;;2.47;59.90;100872.22;5031632;27;109173;-67
2022/12/10 05:07:43;;;;;;;;;;;;;;;2.48;59.85;100858.25;5033830;28;123350;-68
2022/12/10 05:10:10;;;;;;;;;;;;;;;2.46;59.93;100854.78;5034351;28;124206;-67
2022/12/10 05:12:37;;;;;;;;;;;;;;;2.44;59.74;100860.91;5033311;28;108751;-68
2022/12/10 05:15:04;;;;;;;;;;;;;;;2.42;59.77;100868.78;5031975;28;108789;-68
2022/12/10 05:17:32;;;;;;;;;;;;;;;2.39;59.88;100868.78;5032543;28;124441;-68
2022/12/10 05:19:59;;;;;;;;;;;;;;;2.38;59.96;100866.22;5033271;28;124353;-67
2022/12/10 05:25:11;;;;;;;;;;;;;;;2.43;60.14;100875.75;5032292;28;108493;-68
2022/12/10 05:27:38;;;;;;;;;;;;;;;2.46;60.21;100870.47;5032974;27;124696;-67
2022/12/10 05:30:05;;;;;;;;;;;;;;;2.49;60.10;100859.13;5029761;28;124040;-67
2022/12/10 05:32:33;;;;;;;;;;;;;;;2.56;60.22;100865.13;5032711;28;109756;-68
2022/12/10 05:35:00;;;;;;;;;;;;;;;2.60;60.26;100864.22;5032254;28;108805;-67
2022/12/10 05:37:27;;;;;;;;;;;;;;;2.63;60.27;100866.81;5031057;28;124794;-68
2022/12/10 05:39:54;;;;;;;;;;;;;;;2.67;60.03;100873.72;5033094;28;123912;-68
2022/12/10 05:42:21;;;;;;;;;;;;;;;2.68;60.16;100870.22;5032592;27;109051;-67
2022/12/10 05:44:48;;;;;;;;;;;;;;;2.68;59.92;100870.22;5030904;27;108813;-67
2022/12/10 05:47:14;;;;;;;;;;;;;;;2.67;59.94;100871.09;5031825;28;123262;-68
2022/12/10 05:49:41;;;;;;;;;;;;;;;2.65;59.82;100870.25;5032573;28;123850;-68
2022/12/10 05:52:14;;;;;;;;;;;;;;;2.62;59.92;100876.41;5029570;28;110424;-67
2022/12/10 05:54:41;;;;;;;;;;;;;;;2.63;60.11;100879.88;5032516;28;109936;-68
2022/12/10 05:57:08;;;;;;;;;;;;;;;2.64;59.86;100868.53;5030502;28;124386;-68
2022/12/10 05:59:35;;;;;;;;;;;;;;;2.65;60.11;100875.50;5033049;28;124156;-68
2022/12/10 06:02:02;;;;;;;;;;;;;;;2.65;59.83;100878.97;5033861;28;109226;-68
2022/12/10 06:04:29;;;;;;;;;;;;;;;2.64;59.77;100879.00;5031592;28;108792;-68
2022/12/10 06:06:56;;;;;;;;;;;;;;;2.63;59.93;100878.13;5029790;28;124464;-68
2022/12/10 06:09:23;;;;;;;;;;;;;;;2.64;59.76;100876.38;5033812;28;124817;-67
2022/12/10 06:11:50;;;;;;;;;;;;;;;2.63;59.98;100878.13;5032066;27;108327;-68
2022/12/10 06:14:17;;;;;;;;;;;;;;;2.65;59.95;100880.72;5031713;28;109701;-67
2022/12/10 06:16:44;;;;;;;;;;;;;;;2.68;60.25;100878.09;5029910;28;123020;-68
2022/12/10 06:19:11;;;;;;;;;;;;;;;2.70;60.02;100864.09;5028757;28;124120;-68
2022/12/10 06:21:39;;;;;;;;;;;;;;;2.74;60.12;100864.91;5029051;28;109528;-67
2022/12/10 06:24:06;;;;;;;;;;;;;;;2.78;60.23;100866.59;5033023;28;109058;-68
2022/12/10 06:26:33;;;;;;;;;;;;;;;2.82;60.18;100868.28;5031372;27;125310;-68
2022/12/10 06:29:00;;;;;;;;;;;;;;;2.85;60.12;100873.50;5028997;27;123555;-68
2022/12/10 06:31:27;;;;;;;;;;;;;;;2.88;60.23;100873.47;5029875;28;109430;-68
2022/12/10 06:33:54;;;;;;;;;;;;;;;2.91;60.25;100876.03;5033998;28;109332;-68
2022/12/10 06:36:22;;;;;;;;;;;;;;;2.95;60.08;100878.63;5032860;28;123831;-68
2022/12/10 06:38:49;;;;;;;;;;;;;;;2.98;60.10;100878.59;5033100;27;123791;-68
2022/12/10 06:41:17;;;;;;;;;;;;;;;3.01;60.15;100882.00;5033175;28;111255;-68
2022/12/10 06:43:44;;;;;;;;;;;;;;;3.04;60.10;100881.13;5033257;28;111465;-67
2022/12/10 06:46:12;;;;;;;;;;;;;;;3.04;59.92;100888.97;5032435;28;124296;-68
2022/12/10 06:48:40;;;;;;;;;;;;;;;3.06;60.20;100881.94;5031812;27;124760;-68
2022/12/10 06:51:08;;;;;;;;;;;;;;;3.08;59.88;100880.19;5029477;28;108726;-68
2022/12/10 06:53:36;;;;;;;;;;;;;;;3.11;59.95;100885.38;5029589;28;108826;-68
2022/12/10 06:56:03;;;;;;;;;;;;;;;3.12;59.85;100887.09;5030893;27;124371;-68
2022/12/10 06:58:31;;;;;;;;;;;;;;;3.13;59.93;100894.06;5031355;27;123652;-68
2022/12/10 07:01:05;;;;;;;;;;;;;;;3.13;59.97;100894.06;5031794;27;109304;-68
2022/12/10 07:03:32;;;;;;;;;;;;;;;3.12;59.84;100897.56;5028480;28;109414;-68
2022/12/10 07:06:00;;;;;;;;;;;;;;;3.10;59.82;100894.97;5028880;28;124193;-68
2022/12/10 07:08:27;;;;;;;;;;;;;;;3.10;59.95;100900.19;5029811;28;123983;-68
2022/12/10 07:10:53;;;;;;;;;;;;;;;3.09;59.96;100902.84;5032891;28;109794;-68
2022/12/10 07:13:21;;;;;;;;;;;;;;;3.10;59.97;100904.56;5033059;28;109063;-68
2022/12/10 07:15:55;;;;;;;;;;;;;;;3.08;60.00;100906.34;5028383;28;123461;-68
2022/12/10 07:18:22;;;;;;;;;;;;;;;3.07;60.09;100915.06;5028787;28;124206;-67
2022/12/10 07:20:49;;;;;;;;;;;;;;;3.07;59.81;100915.94;5033167;28;109681;-68
2022/12/10 07:23:16;;;;;;;;;;;;;;;3.06;59.77;100923.81;5030439;27;108835;-68
2022/12/10 07:25:43;;;;;;;;;;;;;;;3.01;59.96;100925.63;5031048;28;124055;-68
2022/12/10 07:28:10;;;;;;;;;;;;;;;2.99;59.77;100927.38;5031393;28;123927;-68
2022/12/10 07:30:37;;;;;;;;;;;;;;;2.97;59.79;100934.41;5024092;28;111343;-67
2022/12/10 07:33:03;;;;;;;;;;;;;;;2.95;60.07;100941.41;5037208;28;109898;-68
2022/12/10 07:35:30;;;;;;;;;;;;;;;2.95;60.25;100936.16;5035177;28;124700;-68
2022/12/10 07:37:57;;;;;;;;;;;;;;;2.95;59.88;100938.78;5031388;27;122708;-68
2022/12/10 07:40:24;;;;;;;;;;;;;;;2.94;60.08;100940.53;5030388;28;109357;-68
2022/12/10 07:42:51;;;;;;;;;;;;;;;2.95;60.02;100946.63;5032072;28;108004;-67
2022/12/10 07:45:18;;;;;;;;;;;;;;;2.93;59.86;100944.88;5029350;27;123334;-68
2022/12/10 07:47:45;;;;;;;;;;;;;;;2.93;60.00;100950.13;5024903;28;123953;-68
2022/12/10 07:50:12;;;;;;;;;;;;;;;2.93;60.18;100929.19;5032162;28;109701;-68
2022/12/10 07:52:38;;;;;;;;;;;;;;;2.93;60.07;100934.41;5029928;28;108472;-68
2022/12/10 07:55:05;;;;;;;;;;;;;;;2.93;59.94;100944.88;5026808;28;124221;-67
2022/12/10 07:57:32;;;;;;;;;;;;;;;2.93;60.12;100944.88;5029756;28;125251;-68
2022/12/10 07:59:59;;;;;;;;;;;;;;;2.92;60.18;100945.78;5031276;28;109149;-68
2022/12/10 08:02:26;;;;;;;;;;;;;;;2.96;60.11;100948.34;5029789;28;108614;-68
2022/12/10 08:04:53;;;;;;;;;;;;;;;2.99;60.10;100959.63;5031557;28;124014;-68
2022/12/10 08:07:20;;;;;;;;;;;;;;;3.02;59.99;100964.00;5030662;28;124513;-68
2022/12/10 08:09:47;;;;;;;;;;;;;;;3.04;60.22;100951.75;5030084;28;109630;-68
2022/12/10 08:12:13;;;;;;;;;;;;;;;3.03;60.02;100955.25;5032641;28;109059;-68
2022/12/10 08:14:40;;;;;;;;;;;;;;;3.04;60.19;100956.97;5031668;28;124270;-68
2022/12/10 08:17:07;;;;;;;;;;;;;;;3.04;60.37;100967.44;5044499;27;123792;-68
2022/12/10 08:19:34;;;;;;;;;;;;;;;3.04;60.10;100962.22;5030809;27;109678;-68
2022/12/10 08:22:01;;;;;;;;;;;;;;;3.06;60.27;100976.16;5025198;28;109925;-67
2022/12/10 08:24:28;;;;;;;;;;;;;;;3.08;60.18;100974.38;5026031;28;124324;-68
2022/12/10 08:26:55;;;;;;;;;;;;;;;3.11;60.15;100974.34;5028825;28;124349;-67
2022/12/10 08:29:21;;;;;;;;;;;;;;;3.13;60.25;100983.03;5031398;28;109598;-68
2022/12/10 08:31:48;;;;;;;;;;;;;;;3.16;60.19;100975.13;5028282;28;109335;-68
2022/12/10 08:34:17;;;;;;;;;;;;;;;3.16;60.01;100982.97;5026790;28;124464;-68
2022/12/10 08:36:45;;;;;;;;;;;;;;;3.18;60.12;100991.69;5029290;28;124376;-68
2022/12/10 08:39:16;;;;;;;;;;;;;;;3.21;60.08;100986.41;5029891;28;109522;-67
2022/12/10 08:41:44;;;;;;;;;;;;;;;3.26;60.39;100989.00;5027158;28;109195;-68
2022/12/10 08:44:11;;;;;;;;;;;;;;;3.29;60.23;100997.66;5029580;28;125052;-68
2022/12/10 08:46:40;;;;;;;;;;;;;;;3.31;60.12;100997.63;5032113;28;96779;-68
2022/12/10 08:49:07;;;;;;;;;;;;;;;3.28;59.95;101003.78;5030276;28;109161;-67
2022/12/10 08:51:34;;;;;;;;;;;;;;;3.27;59.95;101002.03;5030105;28;109428;-68
2022/12/10 08:54:01;;;;;;;;;;;;;;;3.25;59.82;101002.97;5010333;28;123320;-68
2022/12/10 08:56:28;;;;;;;;;;;;;;;3.26;60.18;101010.78;5026295;28;125015;-68
2022/12/10 08:58:55;;;;;;;;;;;;;;;3.28;60.01;100997.69;5030429;28;108762;-68
2022/12/10 09:01:22;;;;;;;;;;;;;;;3.29;60.12;100999.41;5031729;28;108622;-68
2022/12/10 09:03:50;;;;;;;;;;;;;;;3.29;60.10;100995.03;5028437;28;123380;-67
2022/12/10 09:06:18;;;;;;;;;;;;;;;3.30;60.27;100994.16;5027095;28;124869;-68
2022/12/10 09:08:45;;;;;;;;;;;;;;;3.29;59.90;100997.66;5029248;28;110241;-67
2022/12/10 09:11:13;;;;;;;;;;;;;;;3.28;60.15;100995.94;5031448;28;110468;-68
2022/12/10 09:13:40;;;;;;;;;;;;;;;3.29;60.16;100999.41;5027663;28;124948;-68
2022/12/10 09:16:07;;;;;;;;;;;;;;;3.30;59.90;101006.38;5025451;28;124066;-68
2022/12/10 09:18:34;;;;;;;;;;;;;;;3.29;60.27;101004.66;5024984;27;108367;-68
2022/12/10 09:21:05;;;;;;;;;;;;;;;3.33;60.17;101005.47;5029576;28;109190;-68
2022/12/10 09:23:32;;;;;;;;;;;;;;;3.34;60.11;101008.09;5028489;28;124304;-68
2022/12/10 09:26:01;;;;;;;;;;;;;;;3.38;60.03;101014.16;5029426;27;123315;-68
2022/12/10 09:28:28;;;;;;;;;;;;;;;3.38;60.21;101011.53;5027391;28;109613;-67
2022/12/10 09:30:56;;;;;;;;;;;;;;;3.39;60.10;101021.09;5029188;28;107040;-67
2022/12/10 09:33:23;;;;;;;;;;;;;;;3.41;60.27;101019.31;5028456;28;124827;-69
2022/12/10 09:35:50;;;;;;;;;;;;;;;3.42;60.06;101021.06;5028921;27;122792;-69
2022/12/10 09:38:17;;;;;;;;;;;;;;;3.43;60.24;101022.81;5029388;28;110190;-68
2022/12/10 09:41:04;;;;;;;;;;;;;;;3.45;60.29;101026.28;5029702;28;108741;-67
2022/12/10 09:43:37;;;;;;;;;;;;;;;3.45;59.99;101023.66;5028124;28;124707;-68
2022/12/10 09:46:14;;;;;;;;;;;;;;;3.47;60.00;101034.97;5029666;27;125043;-68
2022/12/10 09:48:41;;;;;;;;;;;;;;;3.45;60.19;101042.00;5031550;28;109727;-69
2022/12/10 09:51:08;;;;;;;;;;;;;;;3.43;60.07;101038.53;5031473;28;108612;-68
2022/12/10 09:53:35;;;;;;;;;;;;;;;3.42;60.00;101036.78;5030944;28;124343;-68
2022/12/10 09:56:03;;;;;;;;;;;;;;;3.42;59.99;101036.78;5032328;28;123335;-68
2022/12/10 09:58:30;;;;;;;;;;;;;;;3.42;60.10;101036.78;5032897;28;110501;-68
2022/12/10 10:00:58;;;;;;;;;;;;;;;3.42;60.09;101026.31;5031895;28;109501;-68
2022/12/10 10:03:26;;;;;;;;;;;;;;;3.43;60.06;101031.53;5032659;28;124322;-68
2022/12/10 10:05:54;;;;;;;;;;;;;;;3.44;60.23;101035.00;5033214;28;123767;-68
2022/12/10 10:08:29;;;;;;;;;;;;;;;3.44;60.24;101030.63;5029669;28;110042;-68
2022/12/10 10:10:56;;;;;;;;;;;;;;;3.47;60.01;101034.97;5029468;28;108493;-68
2022/12/10 10:13:25;;;;;;;;;;;;;;;3.48;60.07;101032.34;5030871;28;123790;-67
2022/12/10 10:15:52;;;;;;;;;;;;;;;3.50;60.17;101040.16;5031372;28;124188;-68
2022/12/10 10:18:38;;;;;;;;;;;;;;;3.50;60.08;101034.91;5032023;27;109631;-68
2022/12/10 10:21:07;;;;;;;;;;;;;;;3.51;60.28;101047.13;5031108;28;108745;-68
2022/12/10 10:23:34;;;;;;;;;;;;;;;3.52;60.16;101046.22;5028294;28;124569;-68
2022/12/10 10:26:01;;;;;;;;;;;;;;;3.52;60.34;101043.63;5033121;28;123989;-68
2022/12/10 10:28:28;;;;;;;;;;;;;;;3.55;60.30;101051.44;5026145;28;109479;-68
2022/12/10 10:30:55;;;;;;;;;;;;;;;3.57;60.15;101041.81;5029827;27;109127;-68
2022/12/10 10:33:22;;;;;;;;;;;;;;;3.59;60.05;101040.03;5032393;27;124190;-69
2022/12/10 10:35:53;;;;;;;;;;;;;;;3.59;60.30;101039.19;5034041;27;123226;-69
2022/12/10 10:38:25;;;;;;;;;;;;;;;3.60;60.05;101031.31;5032339;27;109224;-69
2022/12/10 10:40:57;;;;;;;;;;;;;;;3.59;60.30;101034.81;5033791;28;109170;-68
2022/12/10 10:43:30;;;;;;;;;;;;;;;3.62;60.38;101039.16;5032473;28;124218;-68
2022/12/10 10:45:57;;;;;;;;;;;;;;;3.63;60.08;101036.50;5024828;27;124367;-68
2022/12/10 10:48:26;;;;;;;;;;;;;;;3.65;60.07;101045.19;5025153;28;109388;-68
2022/12/10 10:50:54;;;;;;;;;;;;;;;3.67;60.30;101043.44;5033499;28;109146;-68
2022/12/10 10:53:24;;;;;;;;;;;;;;;3.68;60.35;101037.31;5030714;28;125123;-68
2022/12/10 10:55:53;;;;;;;;;;;;;;;3.72;60.33;101039.91;5022714;28;124204;-68
2022/12/10 10:58:21;;;;;;;;;;;;;;;3.74;60.06;101038.13;5027812;28;109314;-68
2022/12/10 11:00:55;;;;;;;;;;;;;;;3.74;60.18;101040.75;5029266;27;107920;-68
2022/12/10 11:03:23;;;;;;;;;;;;;;;3.74;60.30;101038.13;5018811;28;124216;-69
2022/12/10 11:05:49;;;;;;;;;;;;;;;3.72;60.19;101045.13;5026202;27;124405;-69
2022/12/10 11:08:17;;;;;;;;;;;;;;;3.71;60.19;101041.63;5016352;28;109943;-69
2022/12/10 11:10:49;;;;;;;;;;;;;;;3.69;60.01;101036.44;5024670;28;108831;-69
2022/12/10 11:13:24;;;;;;;;;;;;;;;3.68;59.99;101039.91;5027483;28;123424;-68
2022/12/10 11:15:55;;;;;;;;;;;;;;;3.66;60.18;101033.84;5030034;28;124768;-68
2022/12/10 11:18:24;;;;;;;;;;;;;;;3.64;59.91;101030.38;5027237;28;109474;-68
2022/12/10 11:21:17;;;;;;;;;;;;;;;3.63;60.22;101028.63;5033293;28;108526;-69
2022/12/10 11:23:48;;;;;;;;;;;;;;;3.64;60.27;101022.53;5024806;28;125821;-68
2022/12/10 11:26:33;;;;;;;;;;;;;;;3.67;60.37;101027.72;5027055;28;122747;-69
2022/12/10 11:29:12;;;;;;;;;;;;;;;3.69;60.33;101020.72;5029332;28;108407;-68
2022/12/10 11:31:47;;;;;;;;;;;;;;;3.72;60.24;101029.41;5033259;28;108867;-69
2022/12/10 11:34:14;;;;;;;;;;;;;;;3.73;60.22;101020.66;5030166;28;125064;-69
2022/12/10 11:36:59;;;;;;;;;;;;;;;3.75;60.34;101021.50;5028092;28;125036;-69
2022/12/10 11:39:45;;;;;;;;;;;;;;;3.77;60.12;101027.56;5014260;28;109298;-70
2022/12/10 11:42:22;;;;;;;;;;;;;;;3.76;60.21;101025.84;5013072;28;109952;-69
2022/12/10 11:45:02;;;;;;;;;;;;;;;3.77;59.89;101032.81;5026610;28;123576;-68
2022/12/10 11:47:33;;;;;;;;;;;;;;;3.76;60.19;101031.97;5019810;28;123951;-69
2022/12/10 11:50:09;;;;;;;;;;;;;;;3.80;60.27;101027.53;5029218;28;108962;-68
2022/12/10 11:52:55;;;;;;;;;;;;;;;3.82;60.46;101025.75;5023639;28;108998;-69
2022/12/10 11:55:22;;;;;;;;;;;;;;;3.86;60.18;101027.44;5029090;28;125036;-69
2022/12/10 11:57:53;;;;;;;;;;;;;;;3.89;60.39;101022.19;5022382;27;125116;-69
2022/12/10 12:00:22;;;;;;;;;;;;;;;3.91;60.20;101025.63;5014197;28;110400;-68
2022/12/10 12:02:49;;;;;;;;;;;;;;;3.93;60.17;101023.84;5033062;28;108534;-69
2022/12/10 12:05:19;;;;;;;;;;;;;;;3.97;60.41;101029.91;5015555;28;124122;-68
2022/12/10 12:07:51;;;;;;;;;;;;;;;3.99;60.16;101028.13;5023775;28;123643;-69
2022/12/10 12:10:41;;;;;;;;;;;;;;;3.98;59.93;101027.28;5025136;27;109125;-69
2022/12/10 12:13:40;;;;;;;;;;;;;;;3.99;60.34;101029.00;5028852;28;108865;-69
2022/12/10 12:16:10;;;;;;;;;;;;;;;3.99;60.31;101034.25;5022526;28;124312;-68
2022/12/10 12:18:37;;;;;;;;;;;;;;;4.02;60.35;101033.34;5031435;28;125029;-69
2022/12/10 12:21:08;;;;;;;;;;;;;;;4.06;60.31;101025.41;5035907;27;109370;-68
2022/12/10 12:23:35;;;;;;;;;;;;;;;4.10;60.41;101032.31;5022325;28;109134;-69
2022/12/10 12:26:13;;;;;;;;;;;;;;;4.10;60.30;101024.47;5032180;28;124584;-68
2022/12/10 12:28:53;;;;;;;;;;;;;;;4.10;60.11;101027.09;5031448;27;123345;-69
2022/12/10 12:31:21;;;;;;;;;;;;;;;4.10;60.34;101026.22;5036797;27;110920;-68
2022/12/10 12:33:57;;;;;;;;;;;;;;;4.09;60.18;101017.50;5029159;28;111070;-68
2022/12/10 12:36:28;;;;;;;;;;;;;;;4.07;60.28;101021.91;5024030;28;123916;-68
2022/12/10 12:39:02;;;;;;;;;;;;;;;4.08;60.02;101017.53;5027196;27;123161;-68
2022/12/10 12:41:47;;;;;;;;;;;;;;;4.09;60.11;101020.13;5021556;28;109206;-68
2022/12/10 12:44:18;;;;;;;;;;;;;;;4.09;60.28;101020.13;5031290;27;107890;-68
2022/12/10 12:46:46;;;;;;;;;;;;;;;4.12;60.02;101020.97;5028535;28;123946;-69
2022/12/10 12:49:26;;;;;;;;;;;;;;;4.12;60.08;101018.34;5013912;28;123759;-68
2022/12/10 12:51:52;;;;;;;;;;;;;;;4.14;60.16;101011.31;5014655;28;109728;-68
2022/12/10 12:54:19;;;;;;;;;;;;;;;4.16;60.28;101014.78;5022766;28;108456;-68
2022/12/10 12:56:49;;;;;;;;;;;;;;;4.19;60.42;101010.34;5010166;28;124654;-68
2022/12/10 12:59:30;;;;;;;;;;;;;;;4.19;60.21;101019.97;5020637;28;126077;-68
2022/12/10 13:02:14;;;;;;;;;;;;;;;4.18;60.20;101013.88;5024988;28;109245;-67